Time;durP1;ratioP1;P1;durP2;ratioP2;P2;SDS_P1;SDS_P2;PMS_P1;PMS_P2;Temp;Humidity;BMP_temperature;BMP_pressure;BME280_temperature;BME280_humidity;BME280_pressure;Samples;Min_cycle;Max_cycle;Signal;HPM_P1;HPM_P2
2022/04/09 00:01:20;;;;;;;11.65;3.38;;;;;;;2.33;81.52;100270.03;5164340;27;20066;-65
2022/04/09 00:03:47;;;;;;;12.20;2.92;;;;;;;2.30;82.14;100271.75;5159920;27;20043;-66
2022/04/09 00:06:14;;;;;;;10.20;2.75;;;;;;;2.27;81.54;100277.84;5170896;27;20047;-66
2022/04/09 00:08:41;;;;;;;11.00;2.88;;;;;;;2.27;81.73;100285.66;5172612;27;20038;-66
2022/04/09 00:11:09;;;;;;;15.20;3.28;;;;;;;2.27;82.16;100288.25;5170265;27;20161;-67
2022/04/09 00:13:37;;;;;;;7.32;2.50;;;;;;;2.27;81.65;100290.00;5168790;27;20082;-67
2022/04/09 00:16:04;;;;;;;20.48;3.45;;;;;;;2.27;82.14;100284.81;5164635;27;20035;-67
2022/04/09 00:18:32;;;;;;;20.08;3.22;;;;;;;2.27;82.39;100293.44;5170892;27;20039;-66
2022/04/09 00:20:59;;;;;;;20.25;3.22;;;;;;;2.28;82.37;100300.38;5160068;27;20032;-67
2022/04/09 00:23:26;;;;;;;10.93;3.05;;;;;;;2.27;82.31;100303.84;5162626;27;20043;-67
2022/04/09 00:25:53;;;;;;;13.23;2.58;;;;;;;2.28;82.25;100307.34;5170276;27;20107;-67
2022/04/09 00:28:20;;;;;;;14.38;2.97;;;;;;;2.25;82.06;100313.41;5165008;27;20520;-66
2022/04/09 00:30:47;;;;;;;14.68;2.78;;;;;;;2.27;82.38;100318.63;5148814;27;20054;-66
2022/04/09 00:33:15;;;;;;;12.15;2.88;;;;;;;2.31;82.14;100326.41;5166593;27;20050;-67
2022/04/09 00:35:42;;;;;;;21.88;3.05;;;;;;;2.35;82.37;100340.25;5172144;27;20035;-65
2022/04/09 00:38:09;;;;;;;11.57;2.53;;;;;;;2.36;81.99;100328.97;5161115;27;20043;-66
2022/04/09 00:40:39;;;;;;;10.73;2.42;;;;;;;2.37;82.21;100333.31;5150689;27;20088;-68
2022/04/09 00:43:06;;;;;;;15.27;2.63;;;;;;;2.36;82.16;100344.59;5165923;27;20138;-67
2022/04/09 00:45:33;;;;;;;13.93;2.78;;;;;;;2.36;82.15;100343.69;5160213;27;20040;-67
2022/04/09 00:48:05;;;;;;;13.65;2.90;;;;;;;2.38;82.57;100350.66;5162010;27;20039;-68
2022/04/09 00:50:32;;;;;;;12.80;2.70;;;;;;;2.42;82.35;100349.75;5164568;27;20043;-66
2022/04/09 00:53:02;;;;;;;23.42;2.80;;;;;;;2.45;81.98;100354.06;5169843;27;20049;-66
2022/04/09 00:58:20;;;;;;;18.58;3.13;;;;;;;2.46;81.76;100355.81;5162720;27;20123;-66
2022/04/09 01:00:49;;;;;;;13.90;2.58;;;;;;;2.47;82.04;100362.75;5173660;27;20039;-66
2022/04/09 01:03:20;;;;;;;13.95;3.55;;;;;;;2.47;81.87;100367.94;5167857;27;20039;-67
2022/04/09 01:05:49;;;;;;;10.55;2.47;;;;;;;2.49;81.69;100376.59;5161207;27;20057;-67
2022/04/09 01:08:18;;;;;;;10.13;2.80;;;;;;;2.50;81.62;100373.13;5143501;27;20042;-66
2022/04/09 01:10:47;;;;;;;8.00;2.58;;;;;;;2.51;81.44;100374.88;5153355;27;20423;-66
2022/04/09 01:13:15;;;;;;;16.45;2.80;;;;;;;2.51;81.44;100376.59;5141268;27;20051;-66
2022/04/09 01:15:42;;;;;;;18.60;2.80;;;;;;;2.54;81.43;100390.47;5143639;27;20042;-67
2022/04/09 01:18:10;;;;;;;12.27;2.20;;;;;;;2.56;81.38;100396.53;5165329;27;20039;-66
2022/04/09 01:20:38;;;;;;;15.57;2.00;;;;;;;2.55;81.31;100394.78;5158599;27;20071;-65
2022/04/09 01:23:07;;;;;;;13.25;1.83;;;;;;;2.57;81.15;100402.59;5157992;27;20062;-66
2022/04/09 01:25:35;;;;;;;11.95;2.15;;;;;;;2.58;81.41;100402.59;5177954;27;20054;-68
2022/04/09 01:28:02;;;;;;;12.45;1.92;;;;;;;2.59;81.08;100401.72;5164019;27;20039;-67
2022/04/09 01:30:30;;;;;;;12.32;1.83;;;;;;;2.62;81.06;100414.72;5165608;27;20049;-67
2022/04/09 01:32:57;;;;;;;13.05;2.15;;;;;;;2.68;81.07;100411.25;5171485;27;20385;-66
2022/04/09 01:35:25;;;;;;;11.18;1.98;;;;;;;2.68;80.71;100412.97;5151089;27;20109;-67
2022/04/09 01:37:53;;;;;;;12.38;2.00;;;;;;;2.67;81.11;100427.72;5163798;27;20102;-66
2022/04/09 01:40:20;;;;;;;13.52;2.35;;;;;;;2.71;81.10;100431.19;5155241;27;20038;-67
2022/04/09 01:42:50;;;;;;;12.98;2.17;;;;;;;2.74;81.17;100421.59;5147562;27;20672;-68
2022/04/09 01:45:18;;;;;;;11.98;2.20;;;;;;;2.79;80.89;100427.69;5153902;27;20043;-67
2022/04/09 01:47:47;;;;;;;13.07;2.20;;;;;;;2.86;80.55;100441.50;5153151;27;20046;-66
2022/04/09 01:50:14;;;;;;;12.68;1.98;;;;;;;2.86;80.40;100444.09;5156020;27;20373;-67
2022/04/09 01:52:42;;;;;;;12.93;2.13;;;;;;;2.85;80.34;100454.53;5166446;27;20040;-68
2022/04/09 01:55:09;;;;;;;9.25;2.42;;;;;;;2.84;80.17;100455.41;5136743;27;20032;-68
2022/04/09 01:57:40;;;;;;;12.77;2.25;;;;;;;2.84;80.29;100461.50;5153898;27;20094;-66
2022/04/09 02:00:12;;;;;;;20.08;2.70;;;;;;;2.87;80.02;100461.47;5150456;27;20236;-68
2022/04/09 02:02:45;;;;;;;16.65;2.67;;;;;;;2.88;80.04;100472.75;5148082;27;20103;-68
2022/04/09 02:05:15;;;;;;;12.25;1.83;;;;;;;2.85;80.11;100464.97;5150909;27;20043;-68
2022/04/09 02:07:47;;;;;;;13.80;2.33;;;;;;;2.87;80.16;100477.09;5142630;27;20114;-69
2022/04/09 02:10:17;;;;;;;11.07;1.80;;;;;;;2.89;79.92;100477.94;5150846;27;20035;-68
2022/04/09 02:12:46;;;;;;;8.23;2.13;;;;;;;2.97;79.92;100484.84;5162875;27;20405;-68
2022/04/09 02:15:17;;;;;;;12.07;2.30;;;;;;;2.97;79.82;100480.53;5152176;27;20114;-68
2022/04/09 02:17:45;;;;;;;12.10;2.03;;;;;;;2.97;79.76;100487.47;5149397;27;20046;-67
2022/04/09 02:20:15;;;;;;;16.75;2.15;;;;;;;2.97;79.68;100493.56;5155332;27;20034;-68
2022/04/09 02:22:44;;;;;;;12.43;2.85;;;;;;;2.94;79.65;100494.44;5174142;27;20106;-68
2022/04/09 02:25:17;;;;;;;15.07;2.15;;;;;;;2.97;79.88;100503.09;5156647;27;20043;-67
2022/04/09 02:27:46;;;;;;;13.07;2.30;;;;;;;2.98;79.74;100499.63;5155328;27;20128;-66
2022/04/09 02:30:17;;;;;;;13.77;1.85;;;;;;;3.03;79.93;100509.13;5147533;27;20109;-67
2022/04/09 02:32:51;;;;;;;12.30;1.70;;;;;;;3.11;79.80;100523.00;5156415;27;20042;-66
2022/04/09 02:35:25;;;;;;;9.70;2.13;;;;;;;3.22;79.37;100540.31;5155599;27;20045;-66
2022/04/09 02:37:53;;;;;;;11.38;2.03;;;;;;;3.30;79.36;100541.16;5171063;27;20103;-66
2022/04/09 02:40:21;;;;;;;15.57;2.40;;;;;;;3.30;80.20;100538.56;5173211;27;20042;-66
2022/04/09 02:42:51;;;;;;;9.90;2.03;;;;;;;3.24;80.74;100546.38;5166277;27;20479;-64
2022/04/09 02:45:18;;;;;;;13.43;1.70;;;;;;;3.18;81.26;100552.47;5155116;27;20038;-66
2022/04/09 02:47:46;;;;;;;11.57;2.22;;;;;;;3.08;81.53;100540.38;5155957;27;20888;-67
2022/04/09 02:50:19;;;;;;;7.07;1.60;;;;;;;3.00;81.61;100544.75;5151708;27;20537;-66
2022/04/09 02:52:51;;;;;;;11.38;1.90;;;;;;;2.91;81.72;100551.72;5140916;27;20043;-65
2022/04/09 02:55:21;;;;;;;13.47;1.80;;;;;;;2.83;81.87;100556.09;5164960;27;20107;-67
2022/04/09 02:57:50;;;;;;;10.55;1.90;;;;;;;2.77;81.73;100558.69;5154446;27;20053;-66
2022/04/09 03:00:20;;;;;;;11.68;2.70;;;;;;;2.75;82.25;100565.66;5154998;27;20046;-66
2022/04/09 03:02:47;;;;;;;10.85;1.55;;;;;;;2.69;82.41;100568.28;5153490;27;20042;-65
2022/04/09 03:05:21;;;;;;;8.73;2.10;;;;;;;2.65;82.74;100570.03;5140794;27;20059;-66
2022/04/09 03:07:48;;;;;;;14.23;2.08;;;;;;;2.63;83.21;100580.44;5155895;27;20038;-66
2022/04/09 03:10:15;;;;;;;10.77;2.20;;;;;;;2.64;83.29;100582.19;5171211;27;20532;-67
2022/04/09 03:12:46;;;;;;;10.40;2.70;;;;;;;2.65;83.21;100590.84;5169360;27;20130;-67
2022/04/09 03:15:16;;;;;;;12.80;2.13;;;;;;;2.68;83.50;100587.38;5168264;27;20065;-66
2022/04/09 03:17:47;;;;;;;11.32;2.25;;;;;;;2.71;83.60;100588.22;5160631;27;20070;-67
2022/04/09 03:20:17;;;;;;;14.07;2.45;;;;;;;2.72;83.54;100586.50;5144196;27;20087;-66
2022/04/09 03:22:46;;;;;;;16.60;2.47;;;;;;;2.73;83.43;100588.25;5141865;27;20036;-66
2022/04/09 03:25:18;;;;;;;13.30;2.20;;;;;;;2.75;83.54;100596.88;5154549;27;20686;-66
2022/04/09 03:27:49;;;;;;;14.30;2.58;;;;;;;2.76;83.55;100590.81;5166120;27;20051;-67
2022/04/09 03:30:16;;;;;;;12.60;2.00;;;;;;;2.74;83.41;100585.63;5163318;27;20761;-66
2022/04/09 03:32:44;;;;;;;13.93;2.22;;;;;;;2.75;83.55;100596.88;5150990;27;20054;-67
2022/04/09 03:35:17;;;;;;;11.85;1.90;;;;;;;2.78;83.51;100597.78;5153724;27;20050;-67
2022/04/09 03:37:46;;;;;;;11.70;1.98;;;;;;;2.77;83.33;100595.16;5155093;27;20063;-66
2022/04/09 03:40:17;;;;;;;11.18;2.40;;;;;;;2.75;83.36;100605.59;5154796;27;20039;-66
2022/04/09 03:42:45;;;;;;;7.88;1.95;;;;;;;2.74;83.14;100603.00;5153047;27;20070;-67
2022/04/09 03:45:13;;;;;;;12.60;2.17;;;;;;;2.70;83.36;100606.47;5150338;27;20081;-67
2022/04/09 03:47:41;;;;;;;15.70;2.78;;;;;;;2.64;83.40;100616.03;5153248;27;20061;-67
2022/04/09 03:50:14;;;;;;;9.13;2.05;;;;;;;2.61;83.73;100628.16;5153231;27;20046;-67
2022/04/09 03:52:43;;;;;;;16.60;2.42;;;;;;;2.57;83.56;100626.44;5157702;27;20046;-66
2022/04/09 03:55:13;;;;;;;13.90;2.92;;;;;;;2.53;83.61;100638.59;5168277;27;20050;-66
2022/04/09 03:57:40;;;;;;;13.07;2.15;;;;;;;2.48;83.56;100632.50;5165603;27;20458;-66
2022/04/09 04:00:10;;;;;;;14.18;2.05;;;;;;;2.43;83.54;100632.50;5149481;27;20049;-67
2022/04/09 04:02:41;;;;;;;8.90;2.50;;;;;;;2.42;83.80;100635.97;5163046;27;20573;-67
2022/04/09 04:05:11;;;;;;;13.82;2.28;;;;;;;2.43;83.58;100642.06;5146102;27;20051;-66
2022/04/09 04:07:44;;;;;;;9.57;1.85;;;;;;;2.40;83.45;100639.44;5156178;27;20492;-67
2022/04/09 04:10:13;;;;;;;15.77;2.35;;;;;;;2.36;83.37;100641.19;5156888;27;20046;-66
2022/04/09 04:12:44;;;;;;;12.65;2.28;;;;;;;2.31;83.38;100645.50;5153806;27;20069;-65
2022/04/09 04:15:17;;;;;;;14.00;2.08;;;;;;;2.30;83.40;100655.06;5170725;27;20039;-67
2022/04/09 04:17:49;;;;;;;17.88;2.85;;;;;;;2.31;83.35;100654.19;5168251;27;20111;-66
2022/04/09 04:20:23;;;;;;;12.57;2.08;;;;;;;2.37;83.15;100663.75;5166816;27;20035;-66
2022/04/09 04:22:52;;;;;;;6.85;1.80;;;;;;;2.43;83.25;100673.28;5173528;27;20042;-66
2022/04/09 04:25:20;;;;;;;8.80;2.00;;;;;;;2.48;83.24;100671.53;5158854;27;20042;-66
2022/04/09 04:27:49;;;;;;;10.50;1.42;;;;;;;2.48;82.77;100669.81;5151280;27;20047;-65
2022/04/09 04:30:19;;;;;;;10.50;1.90;;;;;;;2.44;82.55;100670.66;5146528;27;20649;-65
2022/04/09 04:32:47;;;;;;;8.60;1.65;;;;;;;2.42;82.47;100671.53;5157429;27;20038;-65
2022/04/09 04:35:17;;;;;;;11.20;2.00;;;;;;;2.41;82.74;100675.88;5163064;27;20555;-66
2022/04/09 04:37:47;;;;;;;9.85;1.65;;;;;;;2.46;82.28;100676.75;5156873;27;20065;-65
2022/04/09 04:40:17;;;;;;;8.30;1.48;;;;;;;2.51;81.82;100687.16;5157096;27;20045;-66
2022/04/09 04:42:52;;;;;;;12.75;1.65;;;;;;;2.56;81.77;100692.38;5155369;27;20038;-65
2022/04/09 04:45:22;;;;;;;12.48;1.63;;;;;;;2.55;81.59;100686.28;5152627;27;20047;-66
2022/04/09 04:47:52;;;;;;;10.27;1.70;;;;;;;2.55;81.50;100698.44;5157770;27;20042;-66
2022/04/09 04:50:24;;;;;;;9.55;1.67;;;;;;;2.58;80.90;100696.69;5148922;27;20049;-65
2022/04/09 04:52:52;;;;;;;18.13;2.30;;;;;;;2.57;80.99;100700.16;5152970;27;20037;-64
2022/04/09 04:55:22;;;;;;;18.23;2.63;;;;;;;2.57;80.88;100702.75;5169962;27;20067;-66
2022/04/09 04:57:52;;;;;;;8.13;1.60;;;;;;;2.54;81.30;100717.50;5139129;27;20053;-66
2022/04/09 05:00:34;;;;;;;13.88;2.53;;;;;;;2.51;81.61;100721.00;5148671;27;20118;-66
2022/04/09 05:03:06;;;;;;;9.10;1.83;;;;;;;2.47;81.59;100720.13;5162548;27;20535;-65
2022/04/09 05:05:42;;;;;;;11.65;1.90;;;;;;;2.43;81.74;100727.94;5143313;27;20051;-64
2022/04/09 05:08:10;;;;;;;9.10;2.20;;;;;;;2.38;81.89;100730.53;5150882;27;20046;-65
2022/04/09 05:10:39;;;;;;;11.77;1.92;;;;;;;2.36;82.15;100740.06;5153030;27;20050;-65
2022/04/09 05:13:07;;;;;;;12.00;1.90;;;;;;;2.36;82.08;100739.16;5166494;27;20046;-65
2022/04/09 05:15:40;;;;;;;13.13;2.35;;;;;;;2.39;82.07;100742.63;5145323;27;20057;-65
2022/04/09 05:18:09;;;;;;;6.55;1.80;;;;;;;2.44;82.06;100751.34;5162470;27;20045;-65
2022/04/09 05:20:37;;;;;;;9.02;2.50;;;;;;;2.49;81.92;100757.41;5148231;27;20126;-66
2022/04/09 05:23:08;;;;;;;13.05;2.63;;;;;;;2.53;81.53;100758.31;5145392;27;20069;-65
2022/04/09 05:25:37;;;;;;;9.82;1.70;;;;;;;2.57;81.41;100765.22;5163045;27;20066;-65
2022/04/09 05:28:08;;;;;;;9.75;2.10;;;;;;;2.60;81.26;100770.47;5156164;27;20038;-66
2022/04/09 05:30:44;;;;;;;10.70;2.45;;;;;;;2.62;81.17;100773.94;5168062;27;20138;-66
2022/04/09 05:33:12;;;;;;;14.73;2.00;;;;;;;2.65;81.01;100786.06;5156034;27;20046;-67
2022/04/09 05:35:44;;;;;;;11.25;2.13;;;;;;;2.76;81.11;100786.97;5148932;27;20851;-66
2022/04/09 05:38:11;;;;;;;10.48;2.00;;;;;;;2.96;80.59;100788.72;5173175;27;20484;-66
2022/04/09 05:40:40;;;;;;;18.08;2.63;;;;;;;3.08;80.18;100785.22;5160543;27;20039;-65
2022/04/09 05:43:12;;;;;;;8.75;2.15;;;;;;;3.16;79.87;100788.69;5147422;27;20455;-65
2022/04/09 05:45:42;;;;;;;15.82;2.72;;;;;;;3.20;79.69;100790.44;5144071;27;20042;-65
2022/04/09 05:48:11;;;;;;;10.93;1.80;;;;;;;3.32;79.40;100793.91;5157118;27;20047;-65
2022/04/09 05:50:44;;;;;;;14.77;2.30;;;;;;;3.42;78.99;100801.69;5156561;27;20039;-65
2022/04/09 05:53:14;;;;;;;15.57;2.53;;;;;;;3.40;78.93;100808.69;5164386;27;20100;-65
2022/04/09 05:55:42;;;;;;;10.32;2.10;;;;;;;3.36;78.62;100806.94;5159637;27;20601;-65
2022/04/09 05:58:09;;;;;;;12.52;2.13;;;;;;;3.36;78.55;100816.47;5156253;27;20509;-68
2022/04/09 06:00:40;;;;;;;8.68;2.03;;;;;;;3.40;78.46;100824.31;5147072;27;20361;-68
2022/04/09 06:03:30;;;;;;;9.27;1.98;;;;;;;3.47;78.50;100824.28;5157972;27;20110;-66
2022/04/09 06:05:58;;;;;;;14.55;2.38;;;;;;;3.62;78.42;100829.47;5149295;27;20058;-67
2022/04/09 06:08:52;;;;;;;12.38;2.03;;;;;;;3.64;77.95;100838.16;5154858;27;20086;-66
2022/04/09 06:11:30;;;;;;;10.52;2.22;;;;;;;3.63;78.02;100843.41;5152363;27;20043;-67
2022/04/09 06:14:03;;;;;;;11.85;2.63;;;;;;;3.73;77.73;100845.13;5141627;27;20043;-67
2022/04/09 06:16:38;;;;;;;10.27;1.95;;;;;;;4.13;77.86;100845.00;5143142;27;20107;-67
2022/04/09 06:19:08;;;;;;;16.67;2.10;;;;;;;4.60;77.30;100844.78;5145975;27;20089;-68
2022/04/09 06:21:37;;;;;;;9.02;2.00;;;;;;;4.73;77.45;100846.44;5146849;27;20073;-65
2022/04/09 06:24:06;;;;;;;10.27;2.05;;;;;;;4.82;77.49;100849.00;5152329;27;20038;-67
2022/04/09 06:26:34;;;;;;;9.45;1.90;;;;;;;4.92;75.00;100854.16;5150373;27;20074;-64
2022/04/09 06:29:02;;;;;;;9.52;1.83;;;;;;;4.91;75.38;100862.88;5149595;27;20108;-64
2022/04/09 06:31:29;;;;;;;12.75;2.25;;;;;;;4.88;74.64;100866.38;5167616;27;20143;-65
2022/04/09 06:33:56;;;;;;;9.75;1.80;;;;;;;5.05;75.03;100865.41;5134731;27;20126;-66
2022/04/09 06:36:25;;;;;;;10.48;1.98;;;;;;;5.38;74.76;100877.38;5152129;27;20042;-64
2022/04/09 06:38:53;;;;;;;10.95;1.77;;;;;;;5.54;73.82;100878.09;5153129;27;20099;-64
2022/04/09 06:41:30;;;;;;;10.25;2.70;;;;;;;5.54;72.73;100885.94;5147920;27;20042;-64
2022/04/09 06:44:01;;;;;;;10.93;1.77;;;;;;;5.71;72.62;100887.53;5134750;27;20985;-64
2022/04/09 06:46:35;;;;;;;12.02;2.53;;;;;;;6.02;72.18;100884.66;5162298;27;20038;-66
2022/04/09 06:49:24;;;;;;;13.13;2.22;;;;;;;6.20;70.98;100887.06;5144362;27;20981;-65
2022/04/09 06:52:07;;;;;;;17.17;3.25;;;;;;;6.32;70.62;100891.28;5168000;27;20567;-67
2022/04/09 06:55:11;;;;;;;7.60;1.80;;;;;;;6.39;67.34;100894.69;5153831;27;20047;-67
2022/04/09 06:57:44;;;;;;;11.02;2.10;;;;;;;6.26;68.37;100893.97;5169674;27;20045;-67
2022/04/09 07:00:16;;;;;;;13.45;2.33;;;;;;;6.29;67.76;100912.28;5152108;27;20095;-67
2022/04/09 07:02:44;;;;;;;12.05;2.20;;;;;;;6.39;68.90;100902.53;5165775;27;20956;-67
2022/04/09 07:05:13;;;;;;;11.02;2.38;;;;;;;6.59;68.39;100901.44;5164524;27;20043;-67
2022/04/09 07:07:46;;;;;;;10.00;2.03;;;;;;;6.72;66.31;100907.38;5157879;27;20043;-68
2022/04/09 07:10:13;;;;;;;13.10;2.10;;;;;;;6.98;67.21;100914.88;5158539;27;20514;-66
2022/04/09 07:12:41;;;;;;;9.88;1.85;;;;;;;7.10;66.26;100919.94;5171248;27;20416;-64
2022/04/09 07:15:09;;;;;;;7.60;2.00;;;;;;;7.10;64.57;100917.31;5166373;27;20517;-66
2022/04/09 07:17:38;;;;;;;7.15;1.50;;;;;;;7.19;64.24;100915.44;5159358;27;20045;-66
2022/04/09 07:20:08;;;;;;;8.93;1.70;;;;;;;7.27;65.27;100924.09;5150813;27;20043;-66
2022/04/09 07:22:37;;;;;;;8.57;1.42;;;;;;;7.30;63.00;100927.53;5150770;27;20235;-65
2022/04/09 07:25:06;;;;;;;8.10;1.60;;;;;;;7.21;64.08;100924.16;5162238;27;20074;-66
2022/04/09 07:27:44;;;;;;;6.30;1.30;;;;;;;7.10;61.14;100916.47;5162318;27;20468;-67
2022/04/09 07:30:21;;;;;;;6.63;1.10;;;;;;;6.96;63.13;100933.25;5163747;27;21137;-67
2022/04/09 07:32:49;;;;;;;3.65;0.90;;;;;;;6.97;62.36;100937.63;5157895;27;20898;-68
2022/04/09 07:35:18;;;;;;;5.38;0.90;;;;;;;7.15;62.37;100941.75;5161065;27;20114;-67
2022/04/09 07:37:50;;;;;;;4.40;0.80;;;;;;;7.08;60.71;100950.56;5162518;27;20031;-66
2022/04/09 07:40:20;;;;;;;3.10;1.00;;;;;;;7.17;62.49;100954.81;5163484;27;20039;-67
2022/04/09 07:42:48;;;;;;;3.60;0.88;;;;;;;7.28;61.02;100957.28;5158893;27;20058;-67
2022/04/09 07:45:15;;;;;;;4.22;1.10;;;;;;;7.34;61.19;100953.69;5144852;27;20043;-67
2022/04/09 07:47:45;;;;;;;4.53;0.90;;;;;;;7.20;60.57;100961.75;5166387;27;20046;-68
2022/04/09 07:50:13;;;;;;;3.78;0.88;;;;;;;7.25;59.76;100962.56;5163806;27;20904;-68
2022/04/09 07:52:42;;;;;;;3.40;0.73;;;;;;;7.39;58.92;100975.50;5156855;27;20059;-67
2022/04/09 07:55:17;;;;;;;3.58;0.77;;;;;;;7.64;58.30;100973.34;5165101;27;20126;-66
2022/04/09 07:57:50;;;;;;;4.38;0.93;;;;;;;7.82;59.51;100985.31;5154855;27;20051;-68
2022/04/09 08:00:20;;;;;;;5.10;1.08;;;;;;;7.92;58.51;100984.25;5163113;27;20034;-66
2022/04/09 08:02:49;;;;;;;5.60;1.02;;;;;;;7.74;58.94;100998.56;5154836;27;20088;-66
2022/04/09 08:05:18;;;;;;;6.13;1.20;;;;;;;7.88;60.14;100984.34;5161080;27;20108;-67
2022/04/09 08:07:47;;;;;;;11.55;1.50;;;;;;;8.14;59.32;100997.00;5164853;27;20047;-67
2022/04/09 08:10:17;;;;;;;7.65;1.23;;;;;;;8.40;58.73;100999.16;5164867;27;20065;-67
2022/04/09 08:12:48;;;;;;;6.45;1.00;;;;;;;8.01;59.24;101014.72;5152472;27;20046;-67
2022/04/09 08:15:18;;;;;;;2.70;0.60;;;;;;;8.23;60.59;101009.09;5154112;27;20039;-67
2022/04/09 08:17:48;;;;;;;1.90;0.52;;;;;;;8.35;60.33;101019.41;5170770;27;20039;-66
2022/04/09 08:20:19;;;;;;;2.63;0.55;;;;;;;8.13;59.76;101018.03;5171086;27;20042;-67
2022/04/09 08:22:49;;;;;;;2.30;0.47;;;;;;;7.70;60.66;101017.84;5171603;27;20092;-67
2022/04/09 08:25:19;;;;;;;0.93;0.30;;;;;;;7.58;61.03;101033.81;5166347;27;20569;-66
2022/04/09 08:27:49;;;;;;;1.30;0.50;;;;;;;7.50;61.52;101026.03;5173506;27;20107;-66
2022/04/09 08:30:23;;;;;;;1.20;0.20;;;;;;;7.33;61.06;101022.75;5163876;27;20046;-66
2022/04/09 08:32:52;;;;;;;1.80;0.40;;;;;;;7.24;61.87;101035.13;5160850;27;20048;-67
2022/04/09 08:35:20;;;;;;;1.48;0.60;;;;;;;7.18;61.35;101032.59;5162878;27;20039;-67
2022/04/09 08:37:55;;;;;;;1.58;0.60;;;;;;;6.79;62.25;101051.41;5164997;27;20135;-66
2022/04/09 08:40:25;;;;;;;1.92;0.60;;;;;;;6.39;64.11;101056.19;5162190;27;20038;-66
2022/04/09 08:42:54;;;;;;;4.07;0.80;;;;;;;6.13;65.86;101047.69;5172394;27;20047;-67
2022/04/09 08:45:21;;;;;;;9.93;6.13;;;;;;;6.06;66.53;101033.78;5156559;27;20112;-66
2022/04/09 08:47:50;;;;;;;1.67;1.00;;;;;;;6.13;67.48;101041.56;5164416;27;20042;-66
2022/04/09 08:50:20;;;;;;;5.53;1.38;;;;;;;6.19;68.01;101050.25;5161887;27;20047;-65
2022/04/09 08:52:47;;;;;;;6.68;1.17;;;;;;;6.26;68.41;101056.31;5170998;27;20560;-66
2022/04/09 08:55:14;;;;;;;6.28;1.63;;;;;;;6.32;68.71;101052.75;5168711;27;20043;-65
2022/04/09 08:57:43;;;;;;;5.75;1.80;;;;;;;6.24;69.40;101065.06;5171432;27;20035;-66
2022/04/09 09:00:13;;;;;;;5.35;1.60;;;;;;;6.08;69.64;101064.31;5171704;27;20039;-65
2022/04/09 09:02:50;;;;;;;5.50;1.90;;;;;;;5.98;70.10;101068.72;5160982;27;20043;-66
2022/04/09 09:05:39;;;;;;;9.60;2.13;;;;;;;5.95;71.50;101069.59;5167388;27;20454;-67
2022/04/09 09:08:09;;;;;;;9.98;2.30;;;;;;;6.16;70.78;101072.97;5164683;27;20037;-67
2022/04/09 09:10:38;;;;;;;8.88;2.08;;;;;;;6.44;70.22;101054.38;5158771;27;20471;-67
2022/04/09 09:13:08;;;;;;;3.10;1.27;;;;;;;6.76;69.37;101055.81;5169485;27;20042;-66
2022/04/09 09:15:52;;;;;;;6.25;1.30;;;;;;;6.93;66.60;101053.84;5166555;27;20475;-65
2022/04/09 09:18:23;;;;;;;5.65;1.00;;;;;;;7.12;65.49;101056.28;5164402;27;20061;-67
2022/04/09 09:21:00;;;;;;;7.07;1.13;;;;;;;7.20;65.51;101050.91;5166809;27;20047;-66
2022/04/09 09:23:32;;;;;;;4.15;1.30;;;;;;;7.45;65.62;101067.19;5161368;27;20035;-67
2022/04/09 09:26:01;;;;;;;3.28;0.70;;;;;;;7.61;63.75;101066.09;5165410;27;20041;-67
2022/04/09 09:28:31;;;;;;;4.63;1.38;;;;;;;7.87;64.23;101064.84;5160798;27;20051;-68
2022/04/09 09:31:05;;;;;;;5.47;1.13;;;;;;;8.13;62.44;101066.19;5169784;27;20068;-68
2022/04/09 09:33:32;;;;;;;5.15;0.90;;;;;;;8.23;62.61;101064.25;5162908;27;20038;-67
2022/04/09 09:36:32;;;;;;;5.32;1.00;;;;;;;8.54;61.83;101061.13;5158319;27;20126;-67
2022/04/09 09:39:05;;;;;;;9.98;1.88;;;;;;;8.73;60.32;101051.16;5159998;27;20043;-66
2022/04/09 09:41:51;;;;;;;9.55;1.75;;;;;;;9.03;58.89;101059.31;5160563;27;20130;-68
2022/04/09 09:44:26;;;;;;;5.78;1.02;;;;;;;9.39;56.78;101048.91;5165869;27;20046;-68
2022/04/09 09:47:04;;;;;;;6.88;1.33;;;;;;;9.57;56.61;101042.38;5148632;27;20043;-68
2022/04/09 09:49:58;;;;;;;4.53;1.33;;;;;;;10.06;55.54;101032.44;5151635;27;20046;-68
2022/04/09 09:52:36;;;;;;;3.13;1.20;;;;;;;10.78;55.27;101043.78;5142908;27;20100;-67
2022/04/09 09:55:10;;;;;;;6.80;1.20;;;;;;;11.31;53.42;101051.03;5165504;27;20039;-67
2022/04/09 09:57:39;;;;;;;;;;;;;;;10.76;54.71;101072.81;5163009;27;20055;-69
2022/04/09 10:00:12;;;;;;;2.30;0.60;;;;;;;9.69;51.90;101090.38;5165020;27;19923;-67
2022/04/09 10:02:40;;;;;;;2.38;0.40;;;;;;;8.52;52.24;101116.34;5158368;27;20099;-67
2022/04/09 10:05:08;;;;;;;1.88;0.52;;;;;;;8.09;54.86;101096.88;5158095;27;20138;-68
2022/04/09 10:07:39;;;;;;;2.03;0.70;;;;;;;8.06;55.00;101090.78;5167065;27;20099;-67
2022/04/09 10:10:07;;;;;;;3.40;0.55;;;;;;;8.10;55.63;101103.00;5155127;27;20441;-68
2022/04/09 10:12:40;;;;;;;2.88;0.60;;;;;;;8.37;55.21;101093.81;5162702;27;20045;-68
2022/04/09 10:15:09;;;;;;;4.38;0.65;;;;;;;8.65;54.90;101095.09;5152977;27;20043;-68
2022/04/09 10:17:38;;;;;;;4.18;0.90;;;;;;;9.10;53.79;101105.63;5163829;27;20035;-68
2022/04/09 10:20:06;;;;;;;10.18;1.33;;;;;;;9.26;54.52;101100.09;5165629;27;20047;-67
2022/04/09 10:22:43;;;;;;;18.35;1.98;;;;;;;9.17;54.34;101099.34;5169945;27;20038;-67
2022/04/09 10:25:11;;;;;;;12.88;1.20;;;;;;;9.08;54.11;101091.66;5159607;27;20049;-66
2022/04/09 10:27:40;;;;;;;4.15;0.95;;;;;;;9.12;54.84;101095.97;5166344;27;20058;-68
2022/04/09 10:30:19;;;;;;;5.05;1.15;;;;;;;9.31;53.32;101100.84;5155350;27;20043;-67
2022/04/09 10:32:52;;;;;;;4.75;1.02;;;;;;;9.50;51.90;101092.53;5157441;27;20042;-68
2022/04/09 10:35:30;;;;;;;8.93;1.40;;;;;;;9.45;51.07;101134.75;5159431;27;20035;-68
2022/04/09 10:38:07;;;;;;;4.38;0.70;;;;;;;9.02;52.63;101121.56;5169598;27;20046;-67
2022/04/09 10:40:50;;;;;;;7.43;1.20;;;;;;;9.13;52.45;101120.47;5168555;27;20035;-68
2022/04/09 10:43:24;;;;;;;11.98;1.40;;;;;;;9.39;52.07;101127.00;5169530;27;20898;-67
2022/04/09 10:46:00;;;;;;;9.30;1.10;;;;;;;9.71;53.81;101112.28;5165702;27;20034;-68
2022/04/09 10:48:34;;;;;;;9.52;0.95;;;;;;;10.09;51.09;101100.84;5151531;27;20047;-68
2022/04/09 10:51:16;;;;;;;2.53;0.90;;;;;;;10.49;51.58;101128.00;5153830;27;20038;-68
2022/04/09 10:53:48;;;;;;;9.68;1.23;;;;;;;10.45;50.09;101114.94;5155751;27;20385;-68
2022/04/09 10:56:27;;;;;;;3.55;1.00;;;;;;;10.69;50.85;101113.44;5168553;27;20046;-67
2022/04/09 10:59:08;;;;;;;2.28;0.75;;;;;;;10.95;50.68;101112.75;5153191;27;20119;-68
2022/04/09 11:01:50;;;;;;;6.03;0.82;;;;;;;10.74;49.18;101110.69;5160431;27;20521;-70
2022/04/09 11:04:35;;;;;;;4.18;1.02;;;;;;;10.14;49.34;101113.91;5165318;27;20050;-68
2022/04/09 11:07:24;;;;;;;6.70;1.02;;;;;;;10.06;50.00;101097.41;5156379;27;20046;-68
2022/04/09 11:09:57;;;;;;;5.82;1.15;;;;;;;10.18;50.64;101110.28;5155326;27;20035;-66
2022/04/09 11:12:39;;;;;;;6.60;0.98;;;;;;;10.25;49.91;101122.41;5159287;27;20416;-67
2022/04/09 11:15:10;;;;;;;6.68;1.33;;;;;;;9.95;50.85;101131.91;5160054;27;20122;-68
2022/04/09 11:17:40;;;;;;;5.78;1.10;;;;;;;9.47;53.58;101154.00;5157913;27;20043;-66
2022/04/09 11:20:10;;;;;;;5.18;1.10;;;;;;;9.13;53.76;101158.19;5158367;27;20038;-67
2022/04/09 11:22:41;;;;;;;5.15;1.08;;;;;;;8.90;54.33;101142.84;5157448;27;20040;-67
2022/04/09 11:25:30;;;;;;;3.03;0.68;;;;;;;8.93;55.78;101132.25;5165376;27;20046;-67
2022/04/09 11:28:18;;;;;;;;;;;;;;;9.04;54.91;101144.34;5160260;27;20051;-67
2022/04/09 11:31:02;;;;;;;3.20;0.90;;;;;;;8.51;56.34;101140.00;5151382;27;19931;-68
2022/04/09 11:33:29;;;;;;;5.50;1.00;;;;;;;8.42;55.63;101138.38;5138534;27;20050;-68
2022/04/09 11:35:59;;;;;;;5.70;1.02;;;;;;;8.60;54.92;101144.25;5154533;27;20093;-67
2022/04/09 11:38:28;;;;;;;4.97;1.00;;;;;;;8.91;53.86;101146.34;5150641;27;20032;-68
2022/04/09 11:40:56;;;;;;;3.55;1.08;;;;;;;9.06;53.75;101139.91;5166899;27;20035;-66
2022/04/09 11:43:24;;;;;;;5.15;1.33;;;;;;;9.12;53.72;101145.03;5168334;27;20041;-67
2022/04/09 11:45:51;;;;;;;4.65;1.20;;;;;;;9.27;52.98;101163.19;5154771;27;20043;-67
2022/04/09 11:48:22;;;;;;;5.00;1.20;;;;;;;9.36;52.83;101135.78;5163243;27;20043;-67
2022/04/09 11:50:51;;;;;;;8.88;1.13;;;;;;;9.63;52.28;101160.69;5160977;27;20037;-66